createdAt,value
2018-04-12T00:00:02.604Z,0.00
2018-04-12T00:01:02.518Z,0.00
2018-04-12T00:02:02.443Z,0.00
2018-04-12T00:03:02.370Z,0.00
2018-04-12T00:04:02.292Z,0.00
2018-04-12T00:05:02.204Z,0.00
2018-04-12T00:06:02.129Z,0.00
2018-04-12T00:07:02.054Z,0.00
2018-04-12T00:08:01.968Z,0.00
2018-04-12T00:09:01.894Z,0.00
2018-04-12T00:10:01.818Z,0.00
2018-04-12T00:11:01.730Z,0.00
2018-04-12T00:12:01.656Z,0.00
2018-04-12T00:13:01.579Z,0.00
2018-04-12T00:14:01.494Z,0.00
2018-04-12T00:15:01.419Z,0.00
2018-04-12T00:16:01.343Z,0.00
2018-04-12T00:17:01.255Z,0.00
2018-04-12T00:18:01.183Z,0.00
2018-04-12T00:19:01.105Z,0.00
2018-04-12T00:20:01.018Z,0.00
2018-04-12T00:21:00.945Z,0.00
2018-04-12T00:22:00.868Z,0.00
2018-04-12T00:23:00.781Z,0.00
2018-04-12T00:24:00.705Z,0.00
2018-04-12T00:25:00.631Z,0.00
2018-04-12T00:26:00.544Z,0.00
2018-04-12T00:27:00.469Z,0.00
2018-04-12T00:28:00.397Z,0.00
2018-04-12T00:29:00.306Z,0.00
2018-04-12T00:30:00.231Z,0.00
2018-04-12T00:31:00.159Z,0.00
2018-04-12T00:32:00.070Z,0.00
2018-04-12T00:32:59.995Z,0.00
2018-04-12T00:33:59.919Z,0.00
2018-04-12T00:34:59.833Z,0.00
2018-04-12T00:35:59.757Z,0.00
2018-04-12T00:36:59.681Z,0.00
2018-04-12T00:37:59.596Z,0.00
2018-04-12T00:38:59.520Z,0.00
2018-04-12T00:39:59.445Z,0.00
2018-04-12T00:40:59.358Z,0.00
2018-04-12T00:41:59.283Z,0.00
2018-04-12T00:42:59.215Z,0.00
2018-04-12T00:43:59.121Z,0.00
2018-04-12T00:44:59.046Z,0.00
2018-04-12T00:45:58.971Z,0.00
2018-04-12T00:46:58.883Z,0.00
2018-04-12T00:47:58.808Z,0.00
2018-04-12T00:48:58.734Z,0.00
2018-04-12T00:49:58.658Z,0.00
2018-04-12T00:50:58.571Z,0.00
2018-04-12T00:51:58.496Z,0.00
2018-04-12T00:52:58.409Z,0.00
2018-04-12T00:53:58.333Z,0.00
2018-04-12T00:54:58.262Z,0.00
2018-04-12T00:55:58.173Z,0.00
2018-04-12T00:56:58.097Z,0.00
2018-04-12T00:57:58.022Z,0.00
2018-04-12T00:58:57.935Z,0.00
2018-04-12T00:59:57.859Z,0.00
2018-04-12T01:00:57.785Z,0.00
2018-04-12T01:01:57.698Z,0.00
2018-04-12T01:02:57.624Z,0.00
2018-04-12T01:03:57.549Z,0.00
2018-04-12T01:04:57.461Z,0.00
2018-04-12T01:05:57.387Z,0.00
2018-04-12T01:06:57.311Z,0.00
2018-04-12T01:07:57.225Z,0.00
2018-04-12T01:08:57.153Z,0.00
2018-04-12T01:09:57.078Z,0.00
2018-04-12T01:10:56.988Z,0.00
2018-04-12T01:11:56.912Z,0.00
2018-04-12T01:12:56.850Z,0.00
2018-04-12T01:13:56.751Z,0.00
2018-04-12T01:14:56.682Z,0.00
2018-04-12T01:15:56.601Z,0.00
2018-04-12T01:16:56.512Z,0.00
2018-04-12T01:17:56.450Z,0.00
2018-04-12T01:18:56.363Z,0.00
2018-04-12T01:19:56.281Z,0.00
2018-04-12T01:20:56.201Z,0.00
2018-04-12T01:21:56.130Z,0.00
2018-04-12T01:22:56.051Z,0.00
2018-04-12T01:23:55.963Z,0.00
2018-04-12T01:24:55.889Z,0.00
2018-04-12T01:25:55.801Z,0.00
2018-04-12T01:26:55.726Z,0.00
2018-04-12T01:27:55.652Z,0.00
2018-04-12T01:28:55.563Z,0.00
2018-04-12T01:29:55.488Z,0.00
2018-04-12T01:30:55.402Z,0.00
2018-04-12T01:31:55.327Z,0.00
2018-04-12T01:32:55.256Z,0.00
2018-04-12T01:33:55.164Z,0.00
2018-04-12T01:34:55.090Z,0.00
2018-04-12T01:35:55.015Z,0.00
2018-04-12T01:36:54.929Z,0.00
2018-04-12T01:37:54.853Z,0.00
2018-04-12T01:38:54.782Z,0.00
2018-04-12T01:39:54.689Z,0.00
2018-04-12T01:40:54.614Z,0.00
2018-04-12T01:41:54.539Z,0.00
2018-04-12T01:42:54.453Z,0.00
2018-04-12T01:43:54.378Z,0.00
2018-04-12T01:44:54.292Z,0.00
2018-04-12T01:45:54.214Z,0.00
2018-04-12T01:46:54.142Z,0.00
2018-04-12T01:47:54.053Z,0.00
2018-04-12T01:48:53.978Z,0.00
2018-04-12T01:49:53.904Z,0.00
2018-04-12T01:50:53.815Z,0.00
2018-04-12T01:51:53.741Z,0.00
2018-04-12T01:52:53.677Z,0.00
2018-04-12T01:53:53.579Z,0.00
2018-04-12T01:54:53.505Z,0.00
2018-04-12T01:55:53.429Z,0.00
2018-04-12T01:56:53.341Z,0.00
2018-04-12T01:57:53.280Z,0.00
2018-04-12T01:58:53.195Z,0.00
2018-04-12T01:59:53.105Z,0.00
2018-04-12T02:00:53.034Z,0.00
2018-04-12T02:01:52.953Z,0.00
2018-04-12T02:02:52.880Z,0.00
2018-04-12T02:03:52.792Z,0.00
2018-04-12T02:04:52.715Z,0.00
2018-04-12T02:05:52.630Z,0.00
2018-04-12T02:06:52.556Z,0.00
2018-04-12T02:07:52.480Z,0.00
2018-04-12T02:08:52.392Z,0.00
2018-04-12T02:09:52.317Z,0.00
2018-04-12T02:10:52.242Z,0.00
2018-04-12T02:11:52.156Z,0.00
2018-04-12T02:12:52.081Z,0.00
2018-04-12T02:13:51.993Z,0.00
2018-04-12T02:14:51.918Z,0.00
2018-04-12T02:15:51.843Z,0.00
2018-04-12T02:16:51.760Z,0.00
2018-04-12T02:17:51.682Z,0.00
2018-04-12T02:18:51.597Z,0.00
2018-04-12T02:19:51.518Z,0.00
2018-04-12T02:20:51.445Z,0.00
2018-04-12T02:21:51.358Z,0.00
2018-04-12T02:22:51.348Z,0.00
2018-04-12T02:23:51.207Z,0.00
2018-04-12T02:24:51.121Z,0.00
2018-04-12T02:25:51.045Z,0.00
2018-04-12T02:26:50.969Z,0.00
2018-04-12T02:27:50.885Z,0.00
2018-04-12T02:28:50.813Z,0.00
2018-04-12T02:29:50.733Z,0.00
2018-04-12T02:30:50.647Z,0.00
2018-04-12T02:31:50.569Z,0.00
2018-04-12T02:32:50.486Z,0.00
2018-04-12T02:33:50.410Z,0.00
2018-04-12T02:34:50.337Z,0.00
2018-04-12T02:35:50.245Z,0.00
2018-04-12T02:36:50.171Z,0.00
2018-04-12T02:37:50.095Z,0.00
2018-04-12T02:38:50.008Z,0.00
2018-04-12T02:39:49.934Z,0.00
2018-04-12T02:40:49.858Z,0.00
2018-04-12T02:41:49.771Z,0.00
2018-04-12T02:42:49.695Z,0.00
2018-04-12T02:43:49.609Z,0.00
2018-04-12T02:44:49.534Z,0.00
2018-04-12T02:45:49.460Z,0.00
2018-04-12T02:46:49.374Z,0.00
2018-04-12T02:47:49.297Z,0.00
2018-04-12T02:48:49.222Z,0.00
2018-04-12T02:49:49.135Z,0.00
2018-04-12T02:50:49.064Z,0.00
2018-04-12T02:51:48.974Z,0.00
2018-04-12T02:52:48.898Z,0.00
2018-04-12T02:53:48.824Z,0.00
2018-04-12T02:54:48.737Z,0.00
2018-04-12T02:55:48.668Z,0.00
2018-04-12T02:56:48.587Z,0.00
2018-04-12T02:57:48.500Z,0.00
2018-04-12T02:58:48.423Z,0.00
2018-04-12T02:59:48.337Z,0.00
2018-04-12T03:00:48.261Z,0.00
2018-04-12T03:01:48.187Z,0.00
2018-04-12T03:02:48.098Z,0.00
2018-04-12T03:03:48.023Z,0.00
2018-04-12T03:04:47.949Z,0.00
2018-04-12T03:05:47.866Z,0.00
2018-04-12T03:06:47.788Z,0.00
2018-04-12T03:07:47.702Z,0.00
2018-04-12T03:08:47.624Z,0.00
2018-04-12T03:09:47.549Z,0.00
2018-04-12T03:10:47.463Z,0.00
2018-04-12T03:11:47.387Z,0.00
2018-04-12T03:12:47.313Z,0.00
2018-04-12T03:13:47.224Z,0.00
2018-04-12T03:14:47.149Z,0.00
2018-04-12T03:15:47.063Z,0.00
2018-04-12T03:16:46.988Z,0.00
2018-04-12T03:17:46.913Z,0.00
2018-04-12T03:18:46.825Z,0.00
2018-04-12T03:19:46.750Z,0.00
2018-04-12T03:20:46.664Z,0.00
2018-04-12T03:21:46.589Z,0.00
2018-04-12T03:22:46.513Z,0.00
2018-04-12T03:23:46.425Z,0.00
2018-04-12T03:24:46.350Z,0.00
2018-04-12T03:25:46.275Z,0.00
2018-04-12T03:26:46.189Z,0.00
2018-04-12T03:27:46.123Z,0.00
2018-04-12T03:28:46.026Z,0.00
2018-04-12T03:29:45.953Z,0.00
2018-04-12T03:30:45.881Z,0.00
2018-04-12T03:31:45.792Z,0.00
2018-04-12T03:32:45.714Z,0.00
2018-04-12T03:33:45.628Z,0.00
2018-04-12T03:34:45.551Z,0.00
2018-04-12T03:35:45.476Z,0.00
2018-04-12T03:36:45.389Z,0.00
2018-04-12T03:37:45.314Z,0.00
2018-04-12T03:38:45.239Z,0.00
2018-04-12T03:39:45.153Z,0.00
2018-04-12T03:40:45.076Z,0.00
2018-04-12T03:41:44.990Z,0.00
2018-04-12T03:42:44.915Z,0.00
2018-04-12T03:43:44.840Z,0.00
2018-04-12T03:44:44.752Z,0.00
2018-04-12T03:45:44.677Z,0.00
2018-04-12T03:46:44.590Z,4.00
2018-04-12T03:47:44.515Z,4.00
2018-04-12T03:48:44.457Z,4.00
2018-04-12T03:49:44.371Z,4.00
2018-04-12T03:50:44.280Z,4.00
2018-04-12T03:51:44.202Z,8.00
2018-04-12T03:52:44.116Z,4.00
2018-04-12T03:53:44.041Z,8.00
2018-04-12T03:54:43.954Z,8.00
2018-04-12T03:55:43.878Z,8.00
2018-04-12T03:56:43.803Z,12.00
2018-04-12T03:57:43.717Z,12.00
2018-04-12T03:58:43.642Z,16.00
2018-04-12T03:59:43.566Z,16.00
2018-04-12T04:00:43.479Z,20.00
2018-04-12T04:01:43.470Z,24.00
2018-04-12T04:02:43.321Z,24.00
2018-04-12T04:03:43.243Z,32.00
2018-04-12T04:04:43.155Z,36.00
2018-04-12T04:05:43.079Z,40.00
2018-04-12T04:06:43.004Z,44.00
2018-04-12T04:07:42.919Z,52.00
2018-04-12T04:08:42.842Z,60.00
2018-04-12T04:09:42.756Z,64.00
2018-04-12T04:10:42.679Z,72.00
2018-04-12T04:11:42.604Z,76.00
2018-04-12T04:12:42.519Z,88.00
2018-04-12T04:13:42.444Z,96.00
2018-04-12T04:14:42.368Z,108.00
2018-04-12T04:15:42.280Z,112.00
2018-04-12T04:16:42.205Z,128.00
2018-04-12T04:17:42.129Z,136.00
2018-04-12T04:18:42.043Z,148.00
2018-04-12T04:19:41.968Z,160.00
2018-04-12T04:20:41.884Z,176.00
2018-04-12T04:21:41.805Z,188.00
2018-04-12T04:22:41.730Z,204.00
2018-04-12T04:23:41.644Z,220.00
2018-04-12T04:24:41.569Z,236.00
2018-04-12T04:25:41.482Z,252.00
2018-04-12T04:26:41.406Z,272.00
2018-04-12T04:27:41.331Z,292.00
2018-04-12T04:28:41.244Z,316.00
2018-04-12T04:29:41.170Z,336.00
2018-04-12T04:30:41.095Z,364.00
2018-04-12T04:31:41.007Z,388.00
2018-04-12T04:32:40.931Z,416.00
2018-04-12T04:33:40.850Z,440.00
2018-04-12T04:34:40.771Z,468.00
2018-04-12T04:35:40.682Z,500.00
2018-04-12T04:36:40.609Z,532.00
2018-04-12T04:37:40.534Z,564.00
2018-04-12T04:38:40.446Z,600.00
2018-04-12T04:39:40.371Z,640.00
2018-04-12T04:40:40.285Z,672.00
2018-04-12T04:41:40.209Z,704.00
2018-04-12T04:42:40.122Z,744.00
2018-04-12T04:43:40.047Z,772.00
2018-04-12T04:44:39.973Z,812.00
2018-04-12T04:45:39.885Z,836.00
2018-04-12T04:46:39.808Z,856.00
2018-04-12T04:47:39.721Z,884.00
2018-04-12T04:48:39.647Z,912.00
2018-04-12T04:49:39.572Z,940.00
2018-04-12T04:50:39.484Z,964.00
2018-04-12T04:51:39.409Z,1000.00
2018-04-12T04:52:39.333Z,1012.00
2018-04-12T04:53:39.251Z,1068.00
2018-04-12T04:54:39.177Z,1072.00
2018-04-12T04:55:39.089Z,1116.00
2018-04-12T04:56:39.016Z,1144.00
2018-04-12T04:57:38.923Z,1152.00
2018-04-12T04:58:38.849Z,1192.00
2018-04-12T04:59:38.775Z,1200.00
2018-04-12T05:00:38.685Z,1256.00
2018-04-12T05:01:38.615Z,1268.00
2018-04-12T05:02:38.524Z,1292.00
2018-04-12T05:03:38.448Z,1344.00
2018-04-12T05:04:38.373Z,1408.00
2018-04-12T05:05:38.286Z,1472.00
2018-04-12T05:06:38.211Z,1560.00
2018-04-12T05:07:38.136Z,1628.00
2018-04-12T05:08:38.050Z,1708.00
2018-04-12T05:09:37.974Z,1760.00
2018-04-12T05:10:37.886Z,1836.00
2018-04-12T05:11:37.812Z,1872.00
2018-04-12T05:12:37.752Z,1936.00
2018-04-12T05:13:37.649Z,1996.00
2018-04-12T05:14:37.577Z,2016.00
2018-04-12T05:15:37.557Z,2076.00
2018-04-12T05:16:37.411Z,2172.00
2018-04-12T05:17:37.338Z,2220.00
2018-04-12T05:18:37.250Z,2260.00
2018-04-12T05:19:37.179Z,2340.00
2018-04-12T05:20:37.089Z,2400.00
2018-04-12T05:21:37.011Z,2396.00
2018-04-12T05:22:36.938Z,2360.00
2018-04-12T05:23:36.851Z,2400.00
2018-04-12T05:24:36.776Z,2420.00
2018-04-12T05:25:36.700Z,2432.00
2018-04-12T05:26:36.612Z,2432.00
2018-04-12T05:27:36.550Z,2488.00
2018-04-12T05:28:36.462Z,2616.00
2018-04-12T05:29:36.379Z,2616.00
2018-04-12T05:30:36.301Z,2600.00
2018-04-12T05:31:36.213Z,2680.00
2018-04-12T05:32:36.151Z,2760.00
2018-04-12T05:33:36.063Z,2692.00
2018-04-12T05:34:35.984Z,2712.00
2018-04-12T05:35:35.901Z,2756.00
2018-04-12T05:36:35.829Z,2748.00
2018-04-12T05:37:35.751Z,2800.00
2018-04-12T05:38:35.663Z,2760.00
2018-04-12T05:39:35.589Z,2728.00
2018-04-12T05:40:35.502Z,2776.00
2018-04-12T05:41:35.427Z,2812.00
2018-04-12T05:42:35.352Z,2824.00
2018-04-12T05:43:35.264Z,2868.00
2018-04-12T05:44:35.189Z,3016.00
2018-04-12T05:45:35.102Z,3028.00
2018-04-12T05:46:35.031Z,3060.00
2018-04-12T05:47:34.952Z,3100.00
2018-04-12T05:48:34.864Z,3100.00
2018-04-12T05:49:34.790Z,3052.00
2018-04-12T05:50:34.714Z,3164.00
2018-04-12T05:51:34.631Z,3208.00
2018-04-12T05:52:34.552Z,3244.00
2018-04-12T05:53:34.478Z,3240.00
2018-04-12T05:54:34.389Z,3280.00
2018-04-12T05:55:34.315Z,3244.00
2018-04-12T05:56:34.239Z,3376.00
2018-04-12T05:57:34.153Z,3236.00
2018-04-12T05:58:34.078Z,3248.00
2018-04-12T05:59:34.003Z,3232.00
2018-04-12T06:00:33.915Z,3364.00
2018-04-12T06:01:33.853Z,3548.00
2018-04-12T06:02:33.766Z,3396.00
2018-04-12T06:03:33.685Z,3536.00
2018-04-12T06:04:33.603Z,3588.00
2018-04-12T06:05:33.528Z,3448.00
2018-04-12T06:06:33.440Z,3484.00
2018-04-12T06:07:33.366Z,3736.00
2018-04-12T06:08:33.291Z,4300.00
2018-04-12T06:09:33.204Z,4320.00
2018-04-12T06:10:33.129Z,4356.00
2018-04-12T06:11:33.056Z,4364.00
2018-04-12T06:12:32.966Z,4468.00
2018-04-12T06:13:32.891Z,4528.00
2018-04-12T06:14:32.818Z,4512.00
2018-04-12T06:15:32.742Z,4552.00
2018-04-12T06:16:32.655Z,4576.00
2018-04-12T06:17:32.582Z,4700.00
2018-04-12T06:18:32.496Z,4696.00
2018-04-12T06:19:32.418Z,4592.00
2018-04-12T06:20:32.345Z,4400.00
2018-04-12T06:21:32.268Z,4596.00
2018-04-12T06:22:32.183Z,4608.00
2018-04-12T06:23:32.106Z,4520.00
2018-04-12T06:24:32.033Z,4620.00
2018-04-12T06:25:31.945Z,4660.00
2018-04-12T06:26:31.871Z,4764.00
2018-04-12T06:27:31.794Z,4752.00
2018-04-12T06:28:31.773Z,4784.00
2018-04-12T06:29:31.643Z,4784.00
2018-04-12T06:30:31.557Z,4632.00
2018-04-12T06:31:31.483Z,4760.00
2018-04-12T06:32:31.407Z,4840.00
2018-04-12T06:33:31.319Z,4796.00
2018-04-12T06:34:31.245Z,4784.00
2018-04-12T06:35:31.170Z,4704.00
2018-04-12T06:36:31.094Z,4740.00
2018-04-12T06:37:31.009Z,4760.00
2018-04-12T06:38:30.933Z,4844.00
2018-04-12T06:39:30.862Z,5076.00
2018-04-12T06:40:30.773Z,5024.00
2018-04-12T06:41:30.698Z,5080.00
2018-04-12T06:42:30.633Z,5256.00
2018-04-12T06:43:30.544Z,5300.00
2018-04-12T06:44:30.463Z,5268.00
2018-04-12T06:45:30.382Z,5188.00
2018-04-12T06:46:30.312Z,5180.00
2018-04-12T06:47:30.233Z,4792.00
2018-04-12T06:48:30.147Z,4848.00
2018-04-12T06:49:30.070Z,4888.00
2018-04-12T06:50:29.995Z,4972.00
2018-04-12T06:51:29.919Z,5104.00
2018-04-12T06:52:29.834Z,5160.00
2018-04-12T06:53:29.759Z,5252.00
2018-04-12T06:54:29.683Z,5164.00
2018-04-12T06:55:29.608Z,5380.00
2018-04-12T06:56:29.524Z,5384.00
2018-04-12T06:57:29.445Z,5576.00
2018-04-12T06:58:29.384Z,5676.00
2018-04-12T06:59:29.296Z,5772.00
2018-04-12T07:00:29.220Z,5952.00
2018-04-12T07:01:29.133Z,6112.00
2018-04-12T07:02:29.059Z,6224.00
2018-04-12T07:03:28.983Z,6292.00
2018-04-12T07:04:28.908Z,6328.00
2018-04-12T07:05:28.821Z,6400.00
2018-04-12T07:06:28.745Z,6480.00
2018-04-12T07:07:28.670Z,6584.00
2018-04-12T07:08:28.595Z,6852.00
2018-04-12T07:09:28.520Z,7128.00
2018-04-12T07:10:28.434Z,7336.00
2018-04-12T07:11:28.359Z,7580.00
2018-04-12T07:12:28.285Z,7968.00
2018-04-12T07:13:28.209Z,8324.00
2018-04-12T07:14:28.124Z,8580.00
2018-04-12T07:15:28.045Z,8708.00
2018-04-12T07:16:27.970Z,8828.00
2018-04-12T07:17:27.895Z,8804.00
2018-04-12T07:18:27.812Z,8788.00
2018-04-12T07:19:27.734Z,8740.00
2018-04-12T07:20:27.660Z,8692.00
2018-04-12T07:21:27.584Z,8664.00
2018-04-12T07:22:27.497Z,8624.00
2018-04-12T07:23:27.421Z,8572.00
2018-04-12T07:24:27.362Z,8536.00
2018-04-12T07:25:27.272Z,8496.00
2018-04-12T07:26:27.196Z,8480.00
2018-04-12T07:27:27.116Z,8484.00
2018-04-12T07:28:27.035Z,8544.00
2018-04-12T07:29:26.960Z,8648.00
2018-04-12T07:30:26.884Z,8828.00
2018-04-12T07:31:26.809Z,9088.00
2018-04-12T07:32:26.723Z,9412.00
2018-04-12T07:33:26.647Z,9844.00
2018-04-12T07:34:26.572Z,10468.00
2018-04-12T07:35:26.511Z,11056.00
2018-04-12T07:36:26.422Z,11544.00
2018-04-12T07:37:26.347Z,11756.00
2018-04-12T07:38:26.260Z,11812.00
2018-04-12T07:39:26.192Z,11640.00
2018-04-12T07:40:26.111Z,11500.00
2018-04-12T07:41:26.039Z,11440.00
2018-04-12T07:42:25.961Z,11360.00
2018-04-12T07:43:25.873Z,11200.00
2018-04-12T07:44:25.800Z,11016.00
2018-04-12T07:45:25.723Z,10968.00
2018-04-12T07:46:25.648Z,11236.00
2018-04-12T07:47:25.573Z,11324.00
2018-04-12T07:48:25.499Z,11188.00
2018-04-12T07:49:25.424Z,11024.00
2018-04-12T07:50:25.338Z,11196.00
2018-04-12T07:51:25.267Z,11204.00
2018-04-12T07:52:25.187Z,11740.00
2018-04-12T07:53:25.113Z,11276.00
2018-04-12T07:54:25.042Z,11628.00
2018-04-12T07:55:24.995Z,12256.00
2018-04-12T07:56:24.889Z,13196.00
2018-04-12T07:57:24.814Z,13244.00
2018-04-12T07:58:24.737Z,12660.00
2018-04-12T07:59:24.655Z,13276.00
2018-04-12T08:00:24.578Z,13164.00
2018-04-12T08:01:24.500Z,12640.00
2018-04-12T08:02:24.426Z,12408.00
2018-04-12T08:03:24.350Z,12520.00
2018-04-12T08:04:24.276Z,11016.00
2018-04-12T08:05:24.201Z,11920.00
2018-04-12T08:06:24.128Z,12072.00
2018-04-12T08:07:24.050Z,12100.00
2018-04-12T08:08:23.989Z,11928.00
2018-04-12T08:09:23.901Z,12728.00
2018-04-12T08:10:23.827Z,13004.00
2018-04-12T08:11:23.751Z,13524.00
2018-04-12T08:12:23.677Z,13656.00
2018-04-12T08:13:23.601Z,13272.00
2018-04-12T08:14:23.527Z,14072.00
2018-04-12T08:15:23.452Z,14504.00
2018-04-12T08:16:23.376Z,12976.00
2018-04-12T08:17:23.302Z,12708.00
2018-04-12T08:18:23.227Z,12384.00
2018-04-12T08:19:23.153Z,12024.00
2018-04-12T08:20:23.091Z,11908.00
2018-04-12T08:21:23.016Z,12088.00
2018-04-12T08:22:22.942Z,11924.00
2018-04-12T08:23:22.874Z,11780.00
2018-04-12T08:24:22.791Z,12580.00
2018-04-12T08:25:22.717Z,13052.00
2018-04-12T08:26:22.641Z,12828.00
2018-04-12T08:27:22.567Z,13272.00
2018-04-12T08:28:22.492Z,13688.00
2018-04-12T08:29:22.417Z,13716.00
2018-04-12T08:30:22.342Z,13952.00
2018-04-12T08:31:22.269Z,14168.00
2018-04-12T08:32:22.192Z,14056.00
2018-04-12T08:33:22.122Z,14708.00
2018-04-12T08:34:22.043Z,15180.00
2018-04-12T08:35:21.968Z,15216.00
2018-04-12T08:36:21.893Z,15396.00
2018-04-12T08:37:21.829Z,15572.00
2018-04-12T08:38:21.755Z,15860.00
2018-04-12T08:39:21.681Z,15872.00
2018-04-12T08:40:21.605Z,15892.00
2018-04-12T08:41:21.531Z,15216.00
2018-04-12T08:42:21.455Z,15212.00
2018-04-12T08:43:21.380Z,15028.00
2018-04-12T08:44:21.305Z,16220.00
2018-04-12T08:45:21.230Z,15676.00
2018-04-12T08:46:21.156Z,14328.00
2018-04-12T08:47:21.082Z,12984.00
2018-04-12T08:48:21.020Z,11592.00
2018-04-12T08:49:20.944Z,11840.00
2018-04-12T08:50:20.869Z,11616.00
2018-04-12T08:51:20.794Z,11196.00
2018-04-12T08:52:20.720Z,10976.00
2018-04-12T08:53:20.645Z,10676.00
2018-04-12T08:54:20.583Z,10428.00
2018-04-12T08:55:20.495Z,10176.00
2018-04-12T08:56:20.432Z,10060.00
2018-04-12T08:57:20.357Z,10156.00
2018-04-12T08:58:20.282Z,10456.00
2018-04-12T08:59:20.210Z,10812.00
2018-04-12T09:00:20.132Z,11860.00
2018-04-12T09:01:20.099Z,11580.00
2018-04-12T09:02:19.987Z,12192.00
2018-04-12T09:03:19.908Z,12884.00
2018-04-12T09:04:19.833Z,13280.00
2018-04-12T09:05:19.772Z,13844.00
2018-04-12T09:06:19.684Z,14600.00
2018-04-12T09:07:19.609Z,15332.00
2018-04-12T09:08:19.535Z,15676.00
2018-04-12T09:09:19.475Z,15048.00
2018-04-12T09:10:19.401Z,14648.00
2018-04-12T09:11:19.326Z,14452.00
2018-04-12T09:12:19.246Z,14168.00
2018-04-12T09:13:19.172Z,13900.00
2018-04-12T09:14:19.099Z,13432.00
2018-04-12T09:15:19.023Z,13316.00
2018-04-12T09:16:18.947Z,14052.00
2018-04-12T09:17:18.873Z,14064.00
2018-04-12T09:18:18.798Z,13776.00
2018-04-12T09:19:18.723Z,13592.00
2018-04-12T09:20:18.649Z,13876.00
2018-04-12T09:21:18.574Z,14460.00
2018-04-12T09:22:18.500Z,14888.00
2018-04-12T09:23:18.436Z,15876.00
2018-04-12T09:24:18.397Z,17440.00
2018-04-12T09:25:18.286Z,18496.00
2018-04-12T09:26:18.211Z,20672.00
2018-04-12T09:27:18.135Z,19712.00
2018-04-12T09:28:18.061Z,18272.00
2018-04-12T09:29:17.987Z,16480.00
2018-04-12T09:30:17.912Z,15224.00
2018-04-12T09:31:17.837Z,13748.00
2018-04-12T09:32:17.764Z,11960.00
2018-04-12T09:33:17.763Z,10724.00
2018-04-12T09:34:17.627Z,9904.00
2018-04-12T09:35:17.550Z,9436.00
2018-04-12T09:36:17.476Z,9136.00
2018-04-12T09:37:17.402Z,9192.00
2018-04-12T09:38:17.326Z,9480.00
2018-04-12T09:39:17.262Z,9892.00
2018-04-12T09:40:17.201Z,10260.00
2018-04-12T09:41:17.119Z,10740.00
2018-04-12T09:42:17.038Z,11352.00
2018-04-12T09:43:16.968Z,11428.00
2018-04-12T09:44:16.890Z,11796.00
2018-04-12T09:45:16.813Z,12408.00
2018-04-12T09:46:16.771Z,12968.00
2018-04-12T09:47:16.677Z,13020.00
2018-04-12T09:48:16.602Z,12828.00
2018-04-12T09:49:16.540Z,12836.00
2018-04-12T09:50:16.458Z,12932.00
2018-04-12T09:51:16.377Z,12576.00
2018-04-12T09:52:16.303Z,12392.00
2018-04-12T09:53:16.228Z,12332.00
2018-04-12T09:54:16.153Z,12332.00
2018-04-12T09:55:16.090Z,12624.00
2018-04-12T09:56:16.015Z,12880.00
2018-04-12T09:57:15.940Z,13136.00
2018-04-12T09:58:15.865Z,13608.00
2018-04-12T09:59:15.790Z,14016.00
2018-04-12T10:00:15.715Z,14348.00
2018-04-12T10:01:15.654Z,14768.00
2018-04-12T10:02:15.565Z,14780.00
2018-04-12T10:03:15.491Z,15048.00
2018-04-12T10:04:15.430Z,14608.00
2018-04-12T10:05:15.356Z,13844.00
2018-04-12T10:06:15.286Z,13088.00
2018-04-12T10:07:15.206Z,12920.00
2018-04-12T10:08:15.129Z,12536.00
2018-04-12T10:09:15.054Z,11908.00
2018-04-12T10:10:14.983Z,11384.00
2018-04-12T10:11:14.916Z,11096.00
2018-04-12T10:12:14.858Z,11144.00
2018-04-12T10:13:14.766Z,11688.00
2018-04-12T10:14:14.691Z,12652.00
2018-04-12T10:15:14.617Z,13464.00
2018-04-12T10:16:14.555Z,13880.00
2018-04-12T10:17:14.484Z,14204.00
2018-04-12T10:18:14.406Z,14272.00
2018-04-12T10:19:14.331Z,14280.00
2018-04-12T10:20:14.256Z,14032.00
2018-04-12T10:21:14.182Z,13660.00
2018-04-12T10:22:14.118Z,13224.00
2018-04-12T10:23:14.043Z,12760.00
2018-04-12T10:24:13.969Z,12360.00
2018-04-12T10:25:13.893Z,12124.00
2018-04-12T10:26:13.828Z,12084.00
2018-04-12T10:27:13.756Z,12120.00
2018-04-12T10:28:13.682Z,12284.00
2018-04-12T10:29:13.607Z,12600.00
2018-04-12T10:30:13.543Z,13040.00
2018-04-12T10:31:13.457Z,13380.00
2018-04-12T10:32:13.397Z,13656.00
2018-04-12T10:33:13.319Z,13844.00
2018-04-12T10:34:13.247Z,14100.00
2018-04-12T10:35:13.170Z,14244.00
2018-04-12T10:36:13.095Z,14524.00
2018-04-12T10:37:13.034Z,14572.00
2018-04-12T10:38:12.961Z,14680.00
2018-04-12T10:39:12.884Z,14832.00
2018-04-12T10:40:12.807Z,14968.00
2018-04-12T10:41:12.734Z,15000.00
2018-04-12T10:42:12.663Z,14920.00
2018-04-12T10:43:12.595Z,14796.00
2018-04-12T10:44:12.534Z,14492.00
2018-04-12T10:45:12.445Z,14268.00
2018-04-12T10:46:12.372Z,14120.00
2018-04-12T10:47:12.295Z,13892.00
2018-04-12T10:48:12.234Z,13868.00
2018-04-12T10:49:12.163Z,14164.00
2018-04-12T10:50:12.088Z,15072.00
2018-04-12T10:51:12.009Z,15880.00
2018-04-12T10:52:11.934Z,16784.00
2018-04-12T10:53:11.871Z,16700.00
2018-04-12T10:54:11.797Z,18528.00
2018-04-12T10:55:11.721Z,19936.00
2018-04-12T10:56:11.664Z,19168.00
2018-04-12T10:57:11.571Z,19328.00
2018-04-12T10:58:11.497Z,18720.00
2018-04-12T10:59:11.436Z,18560.00
2018-04-12T11:00:11.361Z,20448.00
2018-04-12T11:01:11.286Z,20576.00
2018-04-12T11:02:11.209Z,21184.00
2018-04-12T11:03:11.148Z,22208.00
2018-04-12T11:04:11.072Z,23008.00
2018-04-12T11:05:11.003Z,24000.00
2018-04-12T11:06:10.935Z,23936.00
2018-04-12T11:07:10.865Z,22560.00
2018-04-12T11:08:10.785Z,17320.00
2018-04-12T11:09:10.722Z,14824.00
2018-04-12T11:10:10.647Z,13412.00
2018-04-12T11:11:10.586Z,14660.00
2018-04-12T11:12:10.511Z,11776.00
2018-04-12T11:13:10.448Z,10556.00
2018-04-12T11:14:10.373Z,13528.00
2018-04-12T11:15:10.311Z,14336.00
2018-04-12T11:16:10.239Z,18880.00
2018-04-12T11:17:10.173Z,16852.00
2018-04-12T11:18:10.101Z,19296.00
2018-04-12T11:19:10.026Z,18464.00
2018-04-12T11:20:09.961Z,17888.00
2018-04-12T11:21:09.957Z,17508.00
2018-04-12T11:22:09.823Z,17412.00
2018-04-12T11:23:09.761Z,17124.00
2018-04-12T11:24:09.688Z,17140.00
2018-04-12T11:25:09.637Z,17308.00
2018-04-12T11:26:09.562Z,17036.00
2018-04-12T11:27:09.542Z,17040.00
2018-04-12T11:28:09.438Z,17112.00
2018-04-12T11:29:09.362Z,17152.00
2018-04-12T11:30:09.299Z,17144.00
2018-04-12T11:31:09.238Z,17104.00
2018-04-12T11:32:09.162Z,17060.00
2018-04-12T11:33:09.122Z,17160.00
2018-04-12T11:34:09.054Z,17064.00
2018-04-12T11:35:08.991Z,16856.00
2018-04-12T11:36:08.899Z,16704.00
2018-04-12T11:37:08.837Z,16836.00
2018-04-12T11:38:08.763Z,16804.00
2018-04-12T11:39:08.699Z,16980.00
2018-04-12T11:40:08.637Z,16988.00
2018-04-12T11:41:08.577Z,16932.00
2018-04-12T11:42:08.500Z,16616.00
2018-04-12T11:43:08.439Z,16876.00
2018-04-12T11:44:08.375Z,16792.00
2018-04-12T11:45:08.313Z,16760.00
2018-04-12T11:46:08.238Z,16828.00
2018-04-12T11:47:08.176Z,17536.00
2018-04-12T11:48:08.114Z,17856.00
2018-04-12T11:49:08.076Z,17792.00
2018-04-12T11:50:07.978Z,17600.00
2018-04-12T11:51:07.915Z,17440.00
2018-04-12T11:52:07.852Z,17236.00
2018-04-12T11:53:07.790Z,17664.00
2018-04-12T11:54:07.727Z,17920.00
2018-04-12T11:55:07.653Z,17952.00
2018-04-12T11:56:07.606Z,17920.00
2018-04-12T11:57:07.528Z,17536.00
2018-04-12T11:58:07.465Z,17304.00
2018-04-12T11:59:07.392Z,17124.00
2018-04-12T12:00:07.328Z,16984.00
2018-04-12T12:01:07.268Z,17536.00
2018-04-12T12:02:07.203Z,17300.00
2018-04-12T12:03:07.128Z,17112.00
2018-04-12T12:04:07.066Z,16920.00
2018-04-12T12:05:07.003Z,16972.00
2018-04-12T12:06:06.942Z,16808.00
2018-04-12T12:07:06.878Z,16584.00
2018-04-12T12:08:06.804Z,16712.00
2018-04-12T12:09:06.742Z,16348.00
2018-04-12T12:10:06.681Z,16220.00
2018-04-12T12:11:06.617Z,16180.00
2018-04-12T12:12:06.542Z,16060.00
2018-04-12T12:13:06.479Z,16068.00
2018-04-12T12:14:06.420Z,16324.00
2018-04-12T12:15:06.354Z,16368.00
2018-04-12T12:16:06.280Z,16344.00
2018-04-12T12:17:06.218Z,16236.00
2018-04-12T12:18:06.155Z,17728.00
2018-04-12T12:19:06.100Z,19456.00
2018-04-12T12:20:06.030Z,17952.00